METAR Data
IDs: Format: Raw Decoded Include TAF

Data at: 0801 UTC 30 Oct 2020

KVNY 300751Z AUTO 00000KT 10SM CLR 15/03 A3000 RMK AO2 SLP152 T01500033 403280100